sensor_id;sensor_type;location;lat;lon;timestamp;P1;durP1;ratioP1;P2;durP2;ratioP2
75537;SDS011;64121;48.666;8.114;2023-07-20T00:00:03;3.60;;;2.17;;
75537;SDS011;64121;48.666;8.114;2023-07-20T00:02:29;3.33;;;2.42;;
75537;SDS011;64121;48.666;8.114;2023-07-20T00:04:54;4.68;;;2.45;;
75537;SDS011;64121;48.666;8.114;2023-07-20T00:07:20;3.53;;;2.50;;
75537;SDS011;64121;48.666;8.114;2023-07-20T00:09:45;3.73;;;2.30;;
75537;SDS011;64121;48.666;8.114;2023-07-20T00:12:10;4.57;;;2.27;;
75537;SDS011;64121;48.666;8.114;2023-07-20T00:14:35;4.57;;;2.37;;
75537;SDS011;64121;48.666;8.114;2023-07-20T00:17:00;5.53;;;2.40;;
75537;SDS011;64121;48.666;8.114;2023-07-20T00:19:28;3.28;;;2.40;;
75537;SDS011;64121;48.666;8.114;2023-07-20T00:21:53;4.22;;;2.38;;
75537;SDS011;64121;48.666;8.114;2023-07-20T00:24:19;5.10;;;2.35;;
75537;SDS011;64121;48.666;8.114;2023-07-20T00:26:44;4.80;;;2.20;;
75537;SDS011;64121;48.666;8.114;2023-07-20T00:29:09;3.45;;;2.30;;
75537;SDS011;64121;48.666;8.114;2023-07-20T00:31:35;4.00;;;2.13;;
75537;SDS011;64121;48.666;8.114;2023-07-20T00:34:00;4.17;;;2.30;;
75537;SDS011;64121;48.666;8.114;2023-07-20T00:36:26;3.93;;;2.50;;
75537;SDS011;64121;48.666;8.114;2023-07-20T00:38:51;3.90;;;2.20;;
75537;SDS011;64121;48.666;8.114;2023-07-20T00:41:17;7.47;;;2.40;;
75537;SDS011;64121;48.666;8.114;2023-07-20T00:43:42;3.17;;;2.20;;
75537;SDS011;64121;48.666;8.114;2023-07-20T00:46:07;6.33;;;2.40;;
75537;SDS011;64121;48.666;8.114;2023-07-20T00:48:32;3.63;;;2.40;;
75537;SDS011;64121;48.666;8.114;2023-07-20T00:50:58;4.17;;;2.50;;
75537;SDS011;64121;48.666;8.114;2023-07-20T00:53:25;4.90;;;2.40;;
75537;SDS011;64121;48.666;8.114;2023-07-20T00:55:50;4.85;;;2.45;;
75537;SDS011;64121;48.666;8.114;2023-07-20T00:58:16;4.60;;;2.17;;
75537;SDS011;64121;48.666;8.114;2023-07-20T01:00:41;3.87;;;2.37;;
75537;SDS011;64121;48.666;8.114;2023-07-20T01:03:06;4.77;;;2.53;;
75537;SDS011;64121;48.666;8.114;2023-07-20T01:05:33;4.50;;;2.27;;
75537;SDS011;64121;48.666;8.114;2023-07-20T01:08:01;4.97;;;2.55;;
75537;SDS011;64121;48.666;8.114;2023-07-20T01:10:31;5.45;;;2.45;;
75537;SDS011;64121;48.666;8.114;2023-07-20T01:12:58;4.00;;;2.55;;
75537;SDS011;64121;48.666;8.114;2023-07-20T01:15:25;4.07;;;2.70;;
75537;SDS011;64121;48.666;8.114;2023-07-20T01:17:50;4.33;;;2.53;;
75537;SDS011;64121;48.666;8.114;2023-07-20T01:20:16;3.80;;;2.50;;
75537;SDS011;64121;48.666;8.114;2023-07-20T01:23:01;4.28;;;2.33;;
75537;SDS011;64121;48.666;8.114;2023-07-20T01:25:43;3.13;;;2.22;;
75537;SDS011;64121;48.666;8.114;2023-07-20T01:30:55;4.20;;;2.38;;
75537;SDS011;64121;48.666;8.114;2023-07-20T01:33:22;4.70;;;2.53;;
75537;SDS011;64121;48.666;8.114;2023-07-20T01:35:50;3.42;;;2.13;;
75537;SDS011;64121;48.666;8.114;2023-07-20T01:38:16;3.30;;;2.33;;
75537;SDS011;64121;48.666;8.114;2023-07-20T01:40:42;2.97;;;2.28;;
75537;SDS011;64121;48.666;8.114;2023-07-20T01:43:08;4.00;;;2.58;;
75537;SDS011;64121;48.666;8.114;2023-07-20T01:45:33;3.20;;;2.20;;
75537;SDS011;64121;48.666;8.114;2023-07-20T01:47:58;3.53;;;2.50;;
75537;SDS011;64121;48.666;8.114;2023-07-20T01:50:24;3.73;;;2.43;;
75537;SDS011;64121;48.666;8.114;2023-07-20T01:52:50;4.18;;;2.22;;
75537;SDS011;64121;48.666;8.114;2023-07-20T01:55:15;6.63;;;2.40;;
75537;SDS011;64121;48.666;8.114;2023-07-20T01:57:40;4.30;;;2.43;;
75537;SDS011;64121;48.666;8.114;2023-07-20T02:00:06;3.27;;;2.33;;
75537;SDS011;64121;48.666;8.114;2023-07-20T02:02:31;5.90;;;2.28;;
75537;SDS011;64121;48.666;8.114;2023-07-20T02:04:56;5.70;;;3.00;;
75537;SDS011;64121;48.666;8.114;2023-07-20T02:07:23;3.47;;;2.00;;
75537;SDS011;64121;48.666;8.114;2023-07-20T02:09:48;4.63;;;2.25;;
75537;SDS011;64121;48.666;8.114;2023-07-20T02:12:13;2.93;;;2.20;;
75537;SDS011;64121;48.666;8.114;2023-07-20T02:14:38;3.37;;;1.87;;
75537;SDS011;64121;48.666;8.114;2023-07-20T02:17:04;4.17;;;2.00;;
75537;SDS011;64121;48.666;8.114;2023-07-20T02:19:29;4.05;;;2.10;;
75537;SDS011;64121;48.666;8.114;2023-07-20T02:21:54;3.35;;;1.85;;
75537;SDS011;64121;48.666;8.114;2023-07-20T02:24:21;3.43;;;2.03;;
75537;SDS011;64121;48.666;8.114;2023-07-20T02:26:46;2.92;;;1.85;;
75537;SDS011;64121;48.666;8.114;2023-07-20T02:29:11;4.60;;;2.20;;
75537;SDS011;64121;48.666;8.114;2023-07-20T02:31:36;4.10;;;2.17;;
75537;SDS011;64121;48.666;8.114;2023-07-20T02:34:02;3.27;;;2.20;;
75537;SDS011;64121;48.666;8.114;2023-07-20T02:36:27;3.60;;;2.10;;
75537;SDS011;64121;48.666;8.114;2023-07-20T02:38:52;3.27;;;2.10;;
75537;SDS011;64121;48.666;8.114;2023-07-20T02:41:18;4.23;;;1.90;;
75537;SDS011;64121;48.666;8.114;2023-07-20T02:43:43;3.30;;;2.25;;
75537;SDS011;64121;48.666;8.114;2023-07-20T02:46:09;3.73;;;1.90;;
75537;SDS011;64121;48.666;8.114;2023-07-20T02:48:34;4.63;;;2.30;;
75537;SDS011;64121;48.666;8.114;2023-07-20T02:50:59;3.80;;;2.27;;
75537;SDS011;64121;48.666;8.114;2023-07-20T02:53:24;4.33;;;2.07;;
75537;SDS011;64121;48.666;8.114;2023-07-20T02:55:49;5.00;;;2.40;;
75537;SDS011;64121;48.666;8.114;2023-07-20T02:58:16;4.33;;;2.07;;
75537;SDS011;64121;48.666;8.114;2023-07-20T03:00:42;7.35;;;2.13;;
75537;SDS011;64121;48.666;8.114;2023-07-20T03:03:07;3.05;;;2.45;;
75537;SDS011;64121;48.666;8.114;2023-07-20T03:05:32;3.93;;;2.10;;
75537;SDS011;64121;48.666;8.114;2023-07-20T03:07:57;3.00;;;2.00;;
75537;SDS011;64121;48.666;8.114;2023-07-20T03:10:22;2.87;;;1.77;;
75537;SDS011;64121;48.666;8.114;2023-07-20T03:12:47;3.73;;;2.00;;
75537;SDS011;64121;48.666;8.114;2023-07-20T03:15:14;3.37;;;2.10;;
75537;SDS011;64121;48.666;8.114;2023-07-20T03:17:39;4.38;;;2.30;;
75537;SDS011;64121;48.666;8.114;2023-07-20T03:20:05;4.23;;;2.30;;
75537;SDS011;64121;48.666;8.114;2023-07-20T03:22:30;4.18;;;2.03;;
75537;SDS011;64121;48.666;8.114;2023-07-20T03:24:55;4.83;;;1.73;;
75537;SDS011;64121;48.666;8.114;2023-07-20T03:27:21;4.73;;;1.97;;
75537;SDS011;64121;48.666;8.114;2023-07-20T03:29:46;2.97;;;1.83;;
75537;SDS011;64121;48.666;8.114;2023-07-20T03:32:12;2.87;;;1.70;;
75537;SDS011;64121;48.666;8.114;2023-07-20T03:34:37;4.35;;;1.90;;
75537;SDS011;64121;48.666;8.114;2023-07-20T03:37:03;4.43;;;2.00;;
75537;SDS011;64121;48.666;8.114;2023-07-20T03:39:28;4.15;;;2.53;;
75537;SDS011;64121;48.666;8.114;2023-07-20T03:41:53;4.20;;;2.00;;
75537;SDS011;64121;48.666;8.114;2023-07-20T03:44:18;4.50;;;1.93;;
75537;SDS011;64121;48.666;8.114;2023-07-20T03:46:44;3.60;;;2.10;;
75537;SDS011;64121;48.666;8.114;2023-07-20T03:49:10;3.47;;;1.90;;
75537;SDS011;64121;48.666;8.114;2023-07-20T03:51:35;5.68;;;2.40;;
75537;SDS011;64121;48.666;8.114;2023-07-20T03:54:00;3.23;;;2.00;;
75537;SDS011;64121;48.666;8.114;2023-07-20T03:56:26;3.33;;;1.77;;
75537;SDS011;64121;48.666;8.114;2023-07-20T03:58:51;2.60;;;1.77;;
75537;SDS011;64121;48.666;8.114;2023-07-20T04:01:16;2.83;;;1.80;;
75537;SDS011;64121;48.666;8.114;2023-07-20T04:03:41;3.60;;;1.90;;
75537;SDS011;64121;48.666;8.114;2023-07-20T04:06:08;3.70;;;1.97;;
75537;SDS011;64121;48.666;8.114;2023-07-20T04:08:33;4.60;;;2.40;;
75537;SDS011;64121;48.666;8.114;2023-07-20T04:11:00;2.40;;;1.60;;
75537;SDS011;64121;48.666;8.114;2023-07-20T04:13:25;3.08;;;1.83;;
75537;SDS011;64121;48.666;8.114;2023-07-20T04:15:51;4.53;;;1.70;;
75537;SDS011;64121;48.666;8.114;2023-07-20T04:18:16;2.53;;;1.70;;
75537;SDS011;64121;48.666;8.114;2023-07-20T04:20:41;3.10;;;1.77;;
75537;SDS011;64121;48.666;8.114;2023-07-20T04:23:07;3.63;;;2.00;;
75537;SDS011;64121;48.666;8.114;2023-07-20T04:25:33;4.28;;;1.90;;
75537;SDS011;64121;48.666;8.114;2023-07-20T04:27:58;4.33;;;2.00;;
75537;SDS011;64121;48.666;8.114;2023-07-20T04:30:23;5.83;;;2.00;;
75537;SDS011;64121;48.666;8.114;2023-07-20T04:32:48;4.47;;;2.00;;
75537;SDS011;64121;48.666;8.114;2023-07-20T04:35:16;4.30;;;1.60;;
75537;SDS011;64121;48.666;8.114;2023-07-20T04:37:42;3.80;;;1.75;;
75537;SDS011;64121;48.666;8.114;2023-07-20T04:40:09;2.83;;;1.63;;
75537;SDS011;64121;48.666;8.114;2023-07-20T04:42:34;3.70;;;1.92;;
75537;SDS011;64121;48.666;8.114;2023-07-20T04:44:59;3.60;;;1.90;;
75537;SDS011;64121;48.666;8.114;2023-07-20T04:47:24;3.43;;;2.00;;
75537;SDS011;64121;48.666;8.114;2023-07-20T04:49:49;2.83;;;1.93;;
75537;SDS011;64121;48.666;8.114;2023-07-20T04:52:15;3.60;;;2.33;;
75537;SDS011;64121;48.666;8.114;2023-07-20T04:54:40;4.17;;;2.20;;
75537;SDS011;64121;48.666;8.114;2023-07-20T04:57:11;4.07;;;2.07;;
75537;SDS011;64121;48.666;8.114;2023-07-20T04:59:36;3.63;;;2.13;;
75537;SDS011;64121;48.666;8.114;2023-07-20T05:02:02;4.43;;;2.60;;
75537;SDS011;64121;48.666;8.114;2023-07-20T05:04:27;3.83;;;2.20;;
75537;SDS011;64121;48.666;8.114;2023-07-20T05:06:52;4.27;;;2.40;;
75537;SDS011;64121;48.666;8.114;2023-07-20T05:09:17;3.70;;;2.20;;
75537;SDS011;64121;48.666;8.114;2023-07-20T05:11:42;3.53;;;2.20;;
75537;SDS011;64121;48.666;8.114;2023-07-20T05:14:09;4.37;;;2.10;;
75537;SDS011;64121;48.666;8.114;2023-07-20T05:16:34;3.63;;;2.20;;
75537;SDS011;64121;48.666;8.114;2023-07-20T05:18:59;4.93;;;2.67;;
75537;SDS011;64121;48.666;8.114;2023-07-20T05:21:24;5.53;;;2.80;;
75537;SDS011;64121;48.666;8.114;2023-07-20T05:23:49;3.77;;;2.80;;
75537;SDS011;64121;48.666;8.114;2023-07-20T05:26:15;3.60;;;2.73;;
75537;SDS011;64121;48.666;8.114;2023-07-20T05:28:40;6.00;;;2.60;;
75537;SDS011;64121;48.666;8.114;2023-07-20T05:31:06;4.80;;;2.77;;
75537;SDS011;64121;48.666;8.114;2023-07-20T05:33:31;5.63;;;2.78;;
75537;SDS011;64121;48.666;8.114;2023-07-20T05:35:57;5.17;;;3.07;;
75537;SDS011;64121;48.666;8.114;2023-07-20T05:38:22;5.03;;;2.90;;
75537;SDS011;64121;48.666;8.114;2023-07-20T05:40:47;4.47;;;2.87;;
75537;SDS011;64121;48.666;8.114;2023-07-20T05:43:12;6.37;;;3.17;;
75537;SDS011;64121;48.666;8.114;2023-07-20T05:45:37;3.92;;;2.65;;
75537;SDS011;64121;48.666;8.114;2023-07-20T05:48:07;5.10;;;2.65;;
75537;SDS011;64121;48.666;8.114;2023-07-20T05:50:33;3.95;;;2.60;;
75537;SDS011;64121;48.666;8.114;2023-07-20T05:52:58;5.00;;;2.93;;
75537;SDS011;64121;48.666;8.114;2023-07-20T05:55:23;5.40;;;2.90;;
75537;SDS011;64121;48.666;8.114;2023-07-20T05:57:48;6.37;;;3.03;;
75537;SDS011;64121;48.666;8.114;2023-07-20T06:00:14;5.73;;;2.93;;
75537;SDS011;64121;48.666;8.114;2023-07-20T06:02:39;8.25;;;3.75;;
75537;SDS011;64121;48.666;8.114;2023-07-20T06:05:06;3.93;;;2.80;;
75537;SDS011;64121;48.666;8.114;2023-07-20T06:07:31;7.57;;;2.88;;
75537;SDS011;64121;48.666;8.114;2023-07-20T06:09:57;15.90;;;4.80;;
75537;SDS011;64121;48.666;8.114;2023-07-20T06:12:22;6.50;;;2.63;;
75537;SDS011;64121;48.666;8.114;2023-07-20T06:14:47;3.30;;;2.40;;
75537;SDS011;64121;48.666;8.114;2023-07-20T06:17:12;4.37;;;2.67;;
75537;SDS011;64121;48.666;8.114;2023-07-20T06:19:37;5.00;;;2.70;;
75537;SDS011;64121;48.666;8.114;2023-07-20T06:22:04;6.30;;;3.23;;
75537;SDS011;64121;48.666;8.114;2023-07-20T06:24:29;4.65;;;2.72;;
75537;SDS011;64121;48.666;8.114;2023-07-20T06:26:55;5.37;;;2.60;;
75537;SDS011;64121;48.666;8.114;2023-07-20T06:29:20;3.43;;;2.10;;
75537;SDS011;64121;48.666;8.114;2023-07-20T06:31:45;5.83;;;2.73;;
75537;SDS011;64121;48.666;8.114;2023-07-20T06:34:10;5.07;;;3.03;;
75537;SDS011;64121;48.666;8.114;2023-07-20T06:36:35;5.00;;;2.50;;
75537;SDS011;64121;48.666;8.114;2023-07-20T06:39:02;3.93;;;2.50;;
75537;SDS011;64121;48.666;8.114;2023-07-20T06:41:27;5.38;;;2.72;;
75537;SDS011;64121;48.666;8.114;2023-07-20T06:43:52;59.07;;;10.10;;
75537;SDS011;64121;48.666;8.114;2023-07-20T06:46:17;32.53;;;6.83;;
75537;SDS011;64121;48.666;8.114;2023-07-20T06:48:42;7.43;;;3.07;;
75537;SDS011;64121;48.666;8.114;2023-07-20T06:51:08;5.03;;;2.73;;
75537;SDS011;64121;48.666;8.114;2023-07-20T06:53:33;7.50;;;2.97;;
75537;SDS011;64121;48.666;8.114;2023-07-20T06:55:59;5.30;;;2.37;;
75537;SDS011;64121;48.666;8.114;2023-07-20T06:58:24;4.85;;;2.63;;
75537;SDS011;64121;48.666;8.114;2023-07-20T07:00:50;4.77;;;2.70;;
75537;SDS011;64121;48.666;8.114;2023-07-20T07:03:15;6.35;;;2.75;;
75537;SDS011;64121;48.666;8.114;2023-07-20T07:05:40;5.40;;;2.80;;
75537;SDS011;64121;48.666;8.114;2023-07-20T07:08:06;5.67;;;2.33;;
75537;SDS011;64121;48.666;8.114;2023-07-20T07:10:31;5.10;;;2.77;;
75537;SDS011;64121;48.666;8.114;2023-07-20T07:12:57;5.33;;;2.40;;
75537;SDS011;64121;48.666;8.114;2023-07-20T07:15:22;5.50;;;2.70;;
75537;SDS011;64121;48.666;8.114;2023-07-20T07:17:48;4.77;;;2.40;;
75537;SDS011;64121;48.666;8.114;2023-07-20T07:20:13;3.47;;;2.53;;
75537;SDS011;64121;48.666;8.114;2023-07-20T07:22:38;4.07;;;2.40;;
75537;SDS011;64121;48.666;8.114;2023-07-20T07:25:03;3.73;;;2.47;;
75537;SDS011;64121;48.666;8.114;2023-07-20T07:27:29;4.18;;;2.28;;
75537;SDS011;64121;48.666;8.114;2023-07-20T07:29:55;4.20;;;2.40;;
75537;SDS011;64121;48.666;8.114;2023-07-20T07:32:20;4.97;;;2.55;;
75537;SDS011;64121;48.666;8.114;2023-07-20T07:34:46;3.97;;;2.13;;
75537;SDS011;64121;48.666;8.114;2023-07-20T07:37:11;6.03;;;2.10;;
75537;SDS011;64121;48.666;8.114;2023-07-20T07:39:36;4.63;;;1.83;;
75537;SDS011;64121;48.666;8.114;2023-07-20T07:42:01;3.77;;;2.07;;
75537;SDS011;64121;48.666;8.114;2023-07-20T07:44:26;3.20;;;2.10;;
75537;SDS011;64121;48.666;8.114;2023-07-20T07:46:53;6.23;;;2.30;;
75537;SDS011;64121;48.666;8.114;2023-07-20T07:49:18;3.60;;;2.13;;
75537;SDS011;64121;48.666;8.114;2023-07-20T07:51:43;4.80;;;2.00;;
75537;SDS011;64121;48.666;8.114;2023-07-20T07:54:09;4.30;;;2.50;;
75537;SDS011;64121;48.666;8.114;2023-07-20T07:56:34;2.83;;;1.77;;
75537;SDS011;64121;48.666;8.114;2023-07-20T07:58:59;5.30;;;2.40;;
75537;SDS011;64121;48.666;8.114;2023-07-20T08:01:24;5.47;;;2.00;;
75537;SDS011;64121;48.666;8.114;2023-07-20T08:03:51;3.77;;;2.07;;
75537;SDS011;64121;48.666;8.114;2023-07-20T08:06:16;5.80;;;2.20;;
75537;SDS011;64121;48.666;8.114;2023-07-20T08:08:41;2.92;;;2.10;;
75537;SDS011;64121;48.666;8.114;2023-07-20T08:11:07;3.77;;;2.30;;
75537;SDS011;64121;48.666;8.114;2023-07-20T08:13:32;2.63;;;1.90;;
75537;SDS011;64121;48.666;8.114;2023-07-20T08:15:57;4.40;;;2.10;;
75537;SDS011;64121;48.666;8.114;2023-07-20T08:18:25;3.67;;;2.05;;
75537;SDS011;64121;48.666;8.114;2023-07-20T08:20:52;3.75;;;2.25;;
75537;SDS011;64121;48.666;8.114;2023-07-20T08:23:17;6.68;;;2.30;;
75537;SDS011;64121;48.666;8.114;2023-07-20T08:25:42;2.97;;;2.03;;
75537;SDS011;64121;48.666;8.114;2023-07-20T08:28:08;4.87;;;2.40;;
75537;SDS011;64121;48.666;8.114;2023-07-20T08:30:39;5.30;;;2.03;;
75537;SDS011;64121;48.666;8.114;2023-07-20T08:33:04;2.60;;;1.60;;
75537;SDS011;64121;48.666;8.114;2023-07-20T08:35:29;5.07;;;2.23;;
75537;SDS011;64121;48.666;8.114;2023-07-20T08:37:56;3.70;;;1.87;;
75537;SDS011;64121;48.666;8.114;2023-07-20T08:40:21;4.68;;;2.30;;
75537;SDS011;64121;48.666;8.114;2023-07-20T08:42:46;5.03;;;2.33;;
75537;SDS011;64121;48.666;8.114;2023-07-20T08:45:11;5.53;;;2.00;;
75537;SDS011;64121;48.666;8.114;2023-07-20T08:47:37;3.90;;;1.80;;
75537;SDS011;64121;48.666;8.114;2023-07-20T08:50:03;4.45;;;1.98;;
75537;SDS011;64121;48.666;8.114;2023-07-20T08:52:30;4.22;;;1.73;;
75537;SDS011;64121;48.666;8.114;2023-07-20T08:54:57;3.42;;;2.10;;
75537;SDS011;64121;48.666;8.114;2023-07-20T08:57:22;4.38;;;1.90;;
75537;SDS011;64121;48.666;8.114;2023-07-20T08:59:48;3.93;;;2.00;;
75537;SDS011;64121;48.666;8.114;2023-07-20T09:02:15;3.20;;;1.80;;
75537;SDS011;64121;48.666;8.114;2023-07-20T09:04:40;2.47;;;1.55;;
75537;SDS011;64121;48.666;8.114;2023-07-20T09:07:05;6.87;;;1.70;;
75537;SDS011;64121;48.666;8.114;2023-07-20T09:09:31;4.57;;;1.60;;
75537;SDS011;64121;48.666;8.114;2023-07-20T09:11:57;3.93;;;1.80;;
75537;SDS011;64121;48.666;8.114;2023-07-20T09:14:22;3.45;;;1.70;;
75537;SDS011;64121;48.666;8.114;2023-07-20T09:16:48;2.53;;;1.48;;
75537;SDS011;64121;48.666;8.114;2023-07-20T09:19:14;6.82;;;1.85;;
75537;SDS011;64121;48.666;8.114;2023-07-20T09:21:39;3.03;;;1.30;;
75537;SDS011;64121;48.666;8.114;2023-07-20T09:24:05;3.30;;;1.30;;
75537;SDS011;64121;48.666;8.114;2023-07-20T09:26:31;5.35;;;1.52;;
75537;SDS011;64121;48.666;8.114;2023-07-20T09:29:05;4.95;;;1.60;;
75537;SDS011;64121;48.666;8.114;2023-07-20T09:31:32;4.65;;;1.50;;
75537;SDS011;64121;48.666;8.114;2023-07-20T09:33:57;2.07;;;1.37;;
75537;SDS011;64121;48.666;8.114;2023-07-20T09:36:22;3.73;;;1.33;;
75537;SDS011;64121;48.666;8.114;2023-07-20T09:38:47;4.67;;;1.90;;
75537;SDS011;64121;48.666;8.114;2023-07-20T09:41:13;2.67;;;1.67;;
75537;SDS011;64121;48.666;8.114;2023-07-20T09:43:38;5.55;;;1.52;;
75537;SDS011;64121;48.666;8.114;2023-07-20T09:46:05;2.80;;;1.25;;
75537;SDS011;64121;48.666;8.114;2023-07-20T09:48:30;3.75;;;1.70;;
75537;SDS011;64121;48.666;8.114;2023-07-20T09:50:55;2.33;;;1.50;;
75537;SDS011;64121;48.666;8.114;2023-07-20T09:53:21;3.50;;;1.70;;
75537;SDS011;64121;48.666;8.114;2023-07-20T09:55:46;4.47;;;1.50;;
75537;SDS011;64121;48.666;8.114;2023-07-20T09:58:11;2.90;;;1.50;;
75537;SDS011;64121;48.666;8.114;2023-07-20T10:00:37;2.57;;;1.40;;
75537;SDS011;64121;48.666;8.114;2023-07-20T10:03:04;3.28;;;1.63;;
75537;SDS011;64121;48.666;8.114;2023-07-20T10:05:30;3.97;;;1.58;;
75537;SDS011;64121;48.666;8.114;2023-07-20T10:07:57;3.47;;;1.60;;
75537;SDS011;64121;48.666;8.114;2023-07-20T10:10:23;3.65;;;1.65;;
75537;SDS011;64121;48.666;8.114;2023-07-20T10:12:48;3.93;;;1.50;;
75537;SDS011;64121;48.666;8.114;2023-07-20T10:15:15;2.45;;;1.50;;
75537;SDS011;64121;48.666;8.114;2023-07-20T10:17:47;3.65;;;1.30;;
75537;SDS011;64121;48.666;8.114;2023-07-20T10:20:14;4.25;;;1.88;;
75537;SDS011;64121;48.666;8.114;2023-07-20T10:22:41;4.45;;;1.42;;
75537;SDS011;64121;48.666;8.114;2023-07-20T10:25:06;3.10;;;1.30;;
75537;SDS011;64121;48.666;8.114;2023-07-20T10:27:32;2.72;;;1.40;;
75537;SDS011;64121;48.666;8.114;2023-07-20T10:29:57;4.80;;;1.70;;
75537;SDS011;64121;48.666;8.114;2023-07-20T10:32:23;3.50;;;1.60;;
75537;SDS011;64121;48.666;8.114;2023-07-20T10:34:50;2.07;;;1.20;;
75537;SDS011;64121;48.666;8.114;2023-07-20T10:37:24;2.53;;;1.48;;
75537;SDS011;64121;48.666;8.114;2023-07-20T10:40:23;4.55;;;1.73;;
75537;SDS011;64121;48.666;8.114;2023-07-20T10:42:48;2.53;;;1.33;;
75537;SDS011;64121;48.666;8.114;2023-07-20T10:45:14;7.10;;;1.83;;
75537;SDS011;64121;48.666;8.114;2023-07-20T10:47:44;2.40;;;1.23;;
75537;SDS011;64121;48.666;8.114;2023-07-20T10:50:10;2.60;;;1.20;;
75537;SDS011;64121;48.666;8.114;2023-07-20T10:52:37;3.37;;;1.40;;
75537;SDS011;64121;48.666;8.114;2023-07-20T10:55:09;2.88;;;1.33;;
75537;SDS011;64121;48.666;8.114;2023-07-20T10:57:35;3.60;;;1.45;;
75537;SDS011;64121;48.666;8.114;2023-07-20T11:00:07;2.30;;;1.50;;
75537;SDS011;64121;48.666;8.114;2023-07-20T11:02:41;3.38;;;1.40;;
75537;SDS011;64121;48.666;8.114;2023-07-20T11:05:06;3.17;;;1.60;;
75537;SDS011;64121;48.666;8.114;2023-07-20T11:07:39;2.28;;;1.20;;
75537;SDS011;64121;48.666;8.114;2023-07-20T11:10:14;5.15;;;1.50;;
75537;SDS011;64121;48.666;8.114;2023-07-20T11:12:40;2.40;;;1.48;;
75537;SDS011;64121;48.666;8.114;2023-07-20T11:15:05;2.17;;;1.50;;
75537;SDS011;64121;48.666;8.114;2023-07-20T11:17:31;2.97;;;1.42;;
75537;SDS011;64121;48.666;8.114;2023-07-20T11:19:57;2.30;;;1.48;;
75537;SDS011;64121;48.666;8.114;2023-07-20T11:22:22;2.90;;;1.20;;
75537;SDS011;64121;48.666;8.114;2023-07-20T11:24:49;2.53;;;1.03;;
75537;SDS011;64121;48.666;8.114;2023-07-20T11:27:14;2.97;;;1.40;;
75537;SDS011;64121;48.666;8.114;2023-07-20T11:29:39;3.70;;;1.30;;
75537;SDS011;64121;48.666;8.114;2023-07-20T11:32:05;3.47;;;2.10;;
75537;SDS011;64121;48.666;8.114;2023-07-20T11:34:31;2.83;;;1.35;;
75537;SDS011;64121;48.666;8.114;2023-07-20T11:36:56;3.55;;;1.45;;
75537;SDS011;64121;48.666;8.114;2023-07-20T11:39:22;2.83;;;1.40;;
75537;SDS011;64121;48.666;8.114;2023-07-20T11:41:49;2.40;;;1.27;;
75537;SDS011;64121;48.666;8.114;2023-07-20T11:44:15;3.20;;;1.52;;
75537;SDS011;64121;48.666;8.114;2023-07-20T11:46:41;3.75;;;1.20;;
75537;SDS011;64121;48.666;8.114;2023-07-20T11:49:06;2.92;;;1.33;;
75537;SDS011;64121;48.666;8.114;2023-07-20T11:51:31;2.60;;;1.42;;
75537;SDS011;64121;48.666;8.114;2023-07-20T11:53:57;3.10;;;1.35;;
75537;SDS011;64121;48.666;8.114;2023-07-20T11:56:23;1.77;;;1.10;;
75537;SDS011;64121;48.666;8.114;2023-07-20T11:58:49;3.22;;;1.33;;
75537;SDS011;64121;48.666;8.114;2023-07-20T12:01:15;2.35;;;1.35;;
75537;SDS011;64121;48.666;8.114;2023-07-20T12:03:41;1.77;;;1.10;;
75537;SDS011;64121;48.666;8.114;2023-07-20T12:08:32;2.13;;;1.50;;
75537;SDS011;64121;48.666;8.114;2023-07-20T12:10:57;3.08;;;1.20;;
75537;SDS011;64121;48.666;8.114;2023-07-20T12:13:22;2.10;;;1.27;;
75537;SDS011;64121;48.666;8.114;2023-07-20T12:15:48;4.43;;;1.43;;
75537;SDS011;64121;48.666;8.114;2023-07-20T12:18:14;2.97;;;1.20;;
75537;SDS011;64121;48.666;8.114;2023-07-20T12:20:39;2.30;;;1.17;;
75537;SDS011;64121;48.666;8.114;2023-07-20T12:23:04;2.93;;;1.40;;
75537;SDS011;64121;48.666;8.114;2023-07-20T12:25:34;3.67;;;1.30;;
75537;SDS011;64121;48.666;8.114;2023-07-20T12:28:00;1.80;;;0.90;;
75537;SDS011;64121;48.666;8.114;2023-07-20T12:30:25;2.83;;;1.10;;
75537;SDS011;64121;48.666;8.114;2023-07-20T12:32:51;2.37;;;1.33;;
75537;SDS011;64121;48.666;8.114;2023-07-20T12:35:17;2.47;;;1.45;;
75537;SDS011;64121;48.666;8.114;2023-07-20T12:37:42;2.07;;;1.30;;
75537;SDS011;64121;48.666;8.114;2023-07-20T12:40:07;2.70;;;1.23;;
75537;SDS011;64121;48.666;8.114;2023-07-20T12:42:33;2.67;;;1.10;;
75537;SDS011;64121;48.666;8.114;2023-07-20T12:44:58;3.23;;;1.30;;
75537;SDS011;64121;48.666;8.114;2023-07-20T12:47:23;2.20;;;1.10;;
75537;SDS011;64121;48.666;8.114;2023-07-20T12:49:49;2.10;;;1.10;;
75537;SDS011;64121;48.666;8.114;2023-07-20T12:52:15;3.97;;;1.40;;
75537;SDS011;64121;48.666;8.114;2023-07-20T12:54:40;6.10;;;1.60;;
75537;SDS011;64121;48.666;8.114;2023-07-20T12:57:05;5.07;;;1.43;;
75537;SDS011;64121;48.666;8.114;2023-07-20T12:59:31;2.35;;;1.10;;
75537;SDS011;64121;48.666;8.114;2023-07-20T13:01:56;3.80;;;1.50;;
75537;SDS011;64121;48.666;8.114;2023-07-20T13:04:21;3.17;;;1.30;;
75537;SDS011;64121;48.666;8.114;2023-07-20T13:06:47;3.00;;;1.10;;
75537;SDS011;64121;48.666;8.114;2023-07-20T13:09:13;3.00;;;1.20;;
75537;SDS011;64121;48.666;8.114;2023-07-20T13:11:38;3.37;;;1.30;;
75537;SDS011;64121;48.666;8.114;2023-07-20T13:14:03;2.47;;;1.13;;
75537;SDS011;64121;48.666;8.114;2023-07-20T13:16:28;3.07;;;1.40;;
75537;SDS011;64121;48.666;8.114;2023-07-20T13:18:53;1.70;;;0.90;;
75537;SDS011;64121;48.666;8.114;2023-07-20T13:21:19;2.20;;;1.30;;
75537;SDS011;64121;48.666;8.114;2023-07-20T13:23:45;1.80;;;1.33;;
75537;SDS011;64121;48.666;8.114;2023-07-20T13:26:10;4.47;;;1.90;;
75537;SDS011;64121;48.666;8.114;2023-07-20T13:28:35;3.80;;;1.20;;
75537;SDS011;64121;48.666;8.114;2023-07-20T13:31:01;2.57;;;1.30;;
75537;SDS011;64121;48.666;8.114;2023-07-20T13:33:26;1.83;;;1.20;;
75537;SDS011;64121;48.666;8.114;2023-07-20T13:35:51;3.30;;;1.30;;
75537;SDS011;64121;48.666;8.114;2023-07-20T13:38:16;2.67;;;1.30;;
75537;SDS011;64121;48.666;8.114;2023-07-20T13:40:43;2.80;;;1.30;;
75537;SDS011;64121;48.666;8.114;2023-07-20T13:43:08;1.80;;;1.10;;
75537;SDS011;64121;48.666;8.114;2023-07-20T13:45:33;2.40;;;1.57;;
75537;SDS011;64121;48.666;8.114;2023-07-20T13:47:58;2.57;;;1.20;;
75537;SDS011;64121;48.666;8.114;2023-07-20T13:50:24;2.90;;;1.50;;
75537;SDS011;64121;48.666;8.114;2023-07-20T13:52:49;1.90;;;1.20;;
75537;SDS011;64121;48.666;8.114;2023-07-20T13:55:14;2.00;;;1.07;;
75537;SDS011;64121;48.666;8.114;2023-07-20T13:57:41;1.87;;;1.20;;
75537;SDS011;64121;48.666;8.114;2023-07-20T14:00:06;2.40;;;1.25;;
75537;SDS011;64121;48.666;8.114;2023-07-20T14:02:32;2.05;;;1.25;;
75537;SDS011;64121;48.666;8.114;2023-07-20T14:04:57;2.87;;;1.20;;
75537;SDS011;64121;48.666;8.114;2023-07-20T14:07:22;3.50;;;1.20;;
75537;SDS011;64121;48.666;8.114;2023-07-20T14:09:47;2.53;;;1.30;;
75537;SDS011;64121;48.666;8.114;2023-07-20T14:12:12;1.67;;;1.03;;
75537;SDS011;64121;48.666;8.114;2023-07-20T14:14:39;1.83;;;1.03;;
75537;SDS011;64121;48.666;8.114;2023-07-20T14:17:04;2.92;;;1.30;;
75537;SDS011;64121;48.666;8.114;2023-07-20T14:19:29;2.65;;;1.38;;
75537;SDS011;64121;48.666;8.114;2023-07-20T14:21:55;1.77;;;1.00;;
75537;SDS011;64121;48.666;8.114;2023-07-20T14:24:20;3.13;;;1.20;;
75537;SDS011;64121;48.666;8.114;2023-07-20T14:26:45;2.43;;;1.30;;
75537;SDS011;64121;48.666;8.114;2023-07-20T14:29:10;2.75;;;1.30;;
75537;SDS011;64121;48.666;8.114;2023-07-20T14:31:37;2.93;;;1.40;;
75537;SDS011;64121;48.666;8.114;2023-07-20T14:34:02;2.17;;;1.17;;
75537;SDS011;64121;48.666;8.114;2023-07-20T14:36:27;3.13;;;1.20;;
75537;SDS011;64121;48.666;8.114;2023-07-20T14:38:52;2.40;;;1.37;;
75537;SDS011;64121;48.666;8.114;2023-07-20T14:41:18;3.42;;;1.50;;
75537;SDS011;64121;48.666;8.114;2023-07-20T14:43:43;2.30;;;1.40;;